Siempre Kalima — EA3951 — position and weather

sailwx.info

Track history (hours):
 
Tides and Currents Weather Stations Pressure Air Temp Water Temp Dewpoint Dewpoint Depression Visibility Wind Speed Wind Dir Waves Ship Positions

Siempre Kalima

Last reported at 2017-Dec-08 14:14 UTC. Time now 2017-Dec-13 16:41 UTC.
Position N 37°34' W 000°59'.

Length 25 m; draft 3.2 m.

Type: Fishing. MMSI: 224082260.

Date/timePositionNaut miles runAvg speedWind from/ knotsBaromVisibWave heightAir tempDewpointWater temp
2017-Dec-08 14:14N 37°34' W 000°59'4 8.5
2017-Dec-08 13:49N 37°31' W 000°55'3 8.3
2017-Dec-08 13:28N 37°29' W 000°53'4 8.5
2017-Dec-08 12:58N 37°26' W 000°49'4 8.6
2017-Dec-08 12:29N 37°24' W 000°45'  
2017-Dec-04 02:42N 37°33' W 000°19'1 4.3
2017-Dec-04 02:31N 37°33' W 000°19'2 4.0
2017-Dec-04 02:00N 37°35' W 000°18'2 3.1
2017-Dec-04 01:30N 37°37' W 000°18'10 0.7
2017-Dec-03 12:17N 37°32' W 000°29'2 8.8
2017-Dec-03 12:00N 37°32' W 000°32'7 8.8
2017-Dec-03 11:11N 37°32' W 000°41'2 8.6
2017-Dec-03 10:59N 37°32' W 000°43'4 8.6
2017-Dec-03 10:31N 37°33' W 000°48'  
2017-Nov-28 15:00N 37°32' W 000°53'4 8.4
2017-Nov-28 14:30N 37°31' W 000°48'  
Track history (hours):
 
Tides and Currents Weather Stations Pressure Air Temp Water Temp Dewpoint Dewpoint Depression Visibility Wind Speed Wind Dir Waves Ship Positions

Siempre Kalima

Last reported at 2017-Dec-08 14:14 UTC. Time now 2017-Dec-13 16:41 UTC.
Position N 37°34' W 000°59'.

Length 25 m; draft 3.2 m.

Type: Fishing. MMSI: 224082260.

Date/timePositionNaut miles runAvg speedWind from/ knotsBaromVisibWave heightAir tempDewpointWater temp
2017-Dec-08 14:14N 37°34' W 000°59'4 8.5
2017-Dec-08 13:49N 37°31' W 000°55'3 8.3
2017-Dec-08 13:28N 37°29' W 000°53'4 8.5
2017-Dec-08 12:58N 37°26' W 000°49'4 8.6
2017-Dec-08 12:29N 37°24' W 000°45'  
2017-Dec-04 02:42N 37°33' W 000°19'1 4.3
2017-Dec-04 02:31N 37°33' W 000°19'2 4.0
2017-Dec-04 02:00N 37°35' W 000°18'2 3.1
2017-Dec-04 01:30N 37°37' W 000°18'10 0.7
2017-Dec-03 12:17N 37°32' W 000°29'2 8.8
2017-Dec-03 12:00N 37°32' W 000°32'7 8.8
2017-Dec-03 11:11N 37°32' W 000°41'2 8.6
2017-Dec-03 10:59N 37°32' W 000°43'4 8.6
2017-Dec-03 10:31N 37°33' W 000°48'  
2017-Nov-28 15:00N 37°32' W 000°53'4 8.4
2017-Nov-28 14:30N 37°31' W 000°48'  

Dump ship's entire track history